sensor_id;sensor_type;location;lat;lon;timestamp;temperature;humidity
7684;DHT22;3884;48.616;12.872;2023-11-19T00:13:25;3.60;99.90
7684;DHT22;3884;48.616;12.872;2023-11-19T00:16:44;3.80;99.90
7684;DHT22;3884;48.616;12.872;2023-11-19T00:19:46;5.30;99.90
7684;DHT22;3884;48.616;12.872;2023-11-19T00:22:59;4.00;99.90
7684;DHT22;3884;48.616;12.872;2023-11-19T00:33:10;3.60;99.90
7684;DHT22;3884;48.616;12.872;2023-11-19T00:38:29;3.60;99.90
7684;DHT22;3884;48.616;12.872;2023-11-19T00:39:15;3.70;99.90
7684;DHT22;3884;48.616;12.872;2023-11-19T00:41:55;3.70;99.90
7684;DHT22;3884;48.616;12.872;2023-11-19T00:44:52;3.70;99.90
7684;DHT22;3884;48.616;12.872;2023-11-19T00:47:53;3.70;99.90
7684;DHT22;3884;48.616;12.872;2023-11-19T00:54:19;4.30;99.90
7684;DHT22;3884;48.616;12.872;2023-11-19T01:26:24;4.20;99.90
7684;DHT22;3884;48.616;12.872;2023-11-19T01:29:53;3.80;99.90
7684;DHT22;3884;48.616;12.872;2023-11-19T01:33:22;3.90;99.90
7684;DHT22;3884;48.616;12.872;2023-11-19T01:54:38;3.80;99.90
7684;DHT22;3884;48.616;12.872;2023-11-19T01:57:31;3.80;99.90
7684;DHT22;3884;48.616;12.872;2023-11-19T02:00:07;3.70;99.90
7684;DHT22;3884;48.616;12.872;2023-11-19T02:02:48;3.70;99.90
7684;DHT22;3884;48.616;12.872;2023-11-19T02:05:25;4.40;99.90
7684;DHT22;3884;48.616;12.872;2023-11-19T02:08:11;4.60;99.90
7684;DHT22;3884;48.616;12.872;2023-11-19T02:12:21;3.90;99.90
7684;DHT22;3884;48.616;12.872;2023-11-19T02:13:38;4.00;99.90
7684;DHT22;3884;48.616;12.872;2023-11-19T02:16:35;3.70;99.90
7684;DHT22;3884;48.616;12.872;2023-11-19T02:19:07;3.70;99.90
7684;DHT22;3884;48.616;12.872;2023-11-19T02:21:57;3.70;99.90
7684;DHT22;3884;48.616;12.872;2023-11-19T02:24:37;4.00;99.90
7684;DHT22;3884;48.616;12.872;2023-11-19T02:30:21;4.40;99.90
7684;DHT22;3884;48.616;12.872;2023-11-19T02:32:56;3.60;99.90
7684;DHT22;3884;48.616;12.872;2023-11-19T02:35:37;3.60;99.90
7684;DHT22;3884;48.616;12.872;2023-11-19T02:38:22;3.70;99.90
7684;DHT22;3884;48.616;12.872;2023-11-19T02:41:24;3.60;99.90
7684;DHT22;3884;48.616;12.872;2023-11-19T02:44:17;3.60;99.90
7684;DHT22;3884;48.616;12.872;2023-11-19T04:02:51;3.70;99.90
7684;DHT22;3884;48.616;12.872;2023-11-19T04:05:33;3.60;99.90
7684;DHT22;3884;48.616;12.872;2023-11-19T04:08:21;3.60;99.90
7684;DHT22;3884;48.616;12.872;2023-11-19T04:11:29;3.80;99.90
7684;DHT22;3884;48.616;12.872;2023-11-19T04:22:25;3.60;99.90
7684;DHT22;3884;48.616;12.872;2023-11-19T04:25:31;3.50;99.90
7684;DHT22;3884;48.616;12.872;2023-11-19T04:28:18;4.30;99.90
7684;DHT22;3884;48.616;12.872;2023-11-19T04:31:38;4.30;99.90
7684;DHT22;3884;48.616;12.872;2023-11-19T04:34:46;4.50;99.90
7684;DHT22;3884;48.616;12.872;2023-11-19T04:41:34;3.80;99.90
7684;DHT22;3884;48.616;12.872;2023-11-19T04:44:22;4.00;99.90
7684;DHT22;3884;48.616;12.872;2023-11-19T04:51:27;3.50;99.90
7684;DHT22;3884;48.616;12.872;2023-11-19T04:55:48;3.60;99.90
7684;DHT22;3884;48.616;12.872;2023-11-19T05:04:43;3.10;99.90
7684;DHT22;3884;48.616;12.872;2023-11-19T06:23:22;3.90;99.90
7684;DHT22;3884;48.616;12.872;2023-11-19T06:26:15;4.10;99.90
7684;DHT22;3884;48.616;12.872;2023-11-19T06:28:55;5.20;99.90
7684;DHT22;3884;48.616;12.872;2023-11-19T06:31:43;4.00;99.90
7684;DHT22;3884;48.616;12.872;2023-11-19T06:34:35;4.30;99.90
7684;DHT22;3884;48.616;12.872;2023-11-19T06:37:38;4.10;99.90
7684;DHT22;3884;48.616;12.872;2023-11-19T06:40:34;4.10;99.90
7684;DHT22;3884;48.616;12.872;2023-11-19T06:46:31;3.90;99.90
7684;DHT22;3884;48.616;12.872;2023-11-19T06:52:52;3.80;99.90
7684;DHT22;3884;48.616;12.872;2023-11-19T07:13:23;4.40;99.90
7684;DHT22;3884;48.616;12.872;2023-11-19T07:16:23;4.60;99.90
7684;DHT22;3884;48.616;12.872;2023-11-19T07:19:15;3.60;99.90
7684;DHT22;3884;48.616;12.872;2023-11-19T07:22:19;3.50;99.90
7684;DHT22;3884;48.616;12.872;2023-11-19T07:25:13;4.00;99.90
7684;DHT22;3884;48.616;12.872;2023-11-19T07:28:06;4.00;99.90
7684;DHT22;3884;48.616;12.872;2023-11-19T07:31:00;4.50;99.90
7684;DHT22;3884;48.616;12.872;2023-11-19T07:33:34;4.60;99.90
7684;DHT22;3884;48.616;12.872;2023-11-19T07:36:56;4.00;99.90
7684;DHT22;3884;48.616;12.872;2023-11-19T07:39:58;4.00;99.90
7684;DHT22;3884;48.616;12.872;2023-11-19T07:43:04;3.60;99.90
7684;DHT22;3884;48.616;12.872;2023-11-19T07:45:47;4.10;99.90
7684;DHT22;3884;48.616;12.872;2023-11-19T07:48:29;4.30;99.90
7684;DHT22;3884;48.616;12.872;2023-11-19T07:51:24;4.10;99.90
7684;DHT22;3884;48.616;12.872;2023-11-19T07:54:14;4.10;99.90
7684;DHT22;3884;48.616;12.872;2023-11-19T07:57:00;4.80;99.90
7684;DHT22;3884;48.616;12.872;2023-11-19T07:59:49;4.00;99.90
7684;DHT22;3884;48.616;12.872;2023-11-19T08:02:22;4.60;99.90
7684;DHT22;3884;48.616;12.872;2023-11-19T08:05:30;4.20;99.90
7684;DHT22;3884;48.616;12.872;2023-11-19T08:08:02;4.10;99.90
7684;DHT22;3884;48.616;12.872;2023-11-19T08:10:44;4.10;99.90
7684;DHT22;3884;48.616;12.872;2023-11-19T08:13:15;4.20;99.90
7684;DHT22;3884;48.616;12.872;2023-11-19T08:15:45;4.10;99.90
7684;DHT22;3884;48.616;12.872;2023-11-19T08:19:05;4.20;99.90
7684;DHT22;3884;48.616;12.872;2023-11-19T08:22:40;4.60;99.90
7684;DHT22;3884;48.616;12.872;2023-11-19T08:25:10;4.30;99.90
7684;DHT22;3884;48.616;12.872;2023-11-19T08:27:57;5.10;99.90
7684;DHT22;3884;48.616;12.872;2023-11-19T08:30:30;3.90;99.90
7684;DHT22;3884;48.616;12.872;2023-11-19T08:33:05;4.30;99.90
7684;DHT22;3884;48.616;12.872;2023-11-19T08:35:48;4.30;99.90
7684;DHT22;3884;48.616;12.872;2023-11-19T08:38:33;4.40;99.90
7684;DHT22;3884;48.616;12.872;2023-11-19T08:41:04;5.40;99.90
7684;DHT22;3884;48.616;12.872;2023-11-19T08:43:37;4.40;99.90
7684;DHT22;3884;48.616;12.872;2023-11-19T08:46:56;4.70;99.90
7684;DHT22;3884;48.616;12.872;2023-11-19T08:53:28;4.40;99.90
7684;DHT22;3884;48.616;12.872;2023-11-19T08:56:08;4.50;99.90
7684;DHT22;3884;48.616;12.872;2023-11-19T08:59:16;4.50;99.90
7684;DHT22;3884;48.616;12.872;2023-11-19T09:01:44;4.90;99.90
7684;DHT22;3884;48.616;12.872;2023-11-19T09:04:17;4.60;99.90
7684;DHT22;3884;48.616;12.872;2023-11-19T09:07:02;4.50;99.90
7684;DHT22;3884;48.616;12.872;2023-11-19T09:09:32;4.60;99.90
7684;DHT22;3884;48.616;12.872;2023-11-19T09:12:05;4.50;99.90
7684;DHT22;3884;48.616;12.872;2023-11-19T09:14:46;4.30;99.90
7684;DHT22;3884;48.616;12.872;2023-11-19T09:17:40;5.30;99.90
7684;DHT22;3884;48.616;12.872;2023-11-19T09:21:03;4.60;99.90
7684;DHT22;3884;48.616;12.872;2023-11-19T09:23:43;4.40;99.90
7684;DHT22;3884;48.616;12.872;2023-11-19T09:26:13;5.90;99.90
7684;DHT22;3884;48.616;12.872;2023-11-19T09:28:48;5.40;99.90
7684;DHT22;3884;48.616;12.872;2023-11-19T09:31:16;5.20;99.90
7684;DHT22;3884;48.616;12.872;2023-11-19T09:33:48;4.50;99.90
7684;DHT22;3884;48.616;12.872;2023-11-19T09:36:18;5.00;99.90
7684;DHT22;3884;48.616;12.872;2023-11-19T09:38:49;4.70;99.90
7684;DHT22;3884;48.616;12.872;2023-11-19T09:41:25;5.50;99.90
7684;DHT22;3884;48.616;12.872;2023-11-19T09:44:12;4.90;99.90
7684;DHT22;3884;48.616;12.872;2023-11-19T09:46:54;6.40;99.90
7684;DHT22;3884;48.616;12.872;2023-11-19T09:49:29;5.00;99.90
7684;DHT22;3884;48.616;12.872;2023-11-19T09:51:56;4.90;99.90
7684;DHT22;3884;48.616;12.872;2023-11-19T09:54:29;4.70;99.90
7684;DHT22;3884;48.616;12.872;2023-11-19T09:57:19;5.00;99.90
7684;DHT22;3884;48.616;12.872;2023-11-19T10:00:06;5.10;99.90
7684;DHT22;3884;48.616;12.872;2023-11-19T10:02:40;5.20;99.90
7684;DHT22;3884;48.616;12.872;2023-11-19T10:05:19;4.90;99.90
7684;DHT22;3884;48.616;12.872;2023-11-19T10:07:53;5.30;99.90
7684;DHT22;3884;48.616;12.872;2023-11-19T10:10:21;6.00;99.90
7684;DHT22;3884;48.616;12.872;2023-11-19T10:13:12;5.50;99.90
7684;DHT22;3884;48.616;12.872;2023-11-19T10:15:55;5.50;99.90
7684;DHT22;3884;48.616;12.872;2023-11-19T10:18:27;5.60;99.90
7684;DHT22;3884;48.616;12.872;2023-11-19T10:20:56;5.50;99.90
7684;DHT22;3884;48.616;12.872;2023-11-19T10:24:03;5.20;99.90
7684;DHT22;3884;48.616;12.872;2023-11-19T11:07:18;6.70;99.90
7684;DHT22;3884;48.616;12.872;2023-11-19T11:10:02;7.40;99.90
7684;DHT22;3884;48.616;12.872;2023-11-19T11:12:38;6.70;99.90
7684;DHT22;3884;48.616;12.872;2023-11-19T11:15:21;6.70;99.90
7684;DHT22;3884;48.616;12.872;2023-11-19T11:17:54;7.30;99.90
7684;DHT22;3884;48.616;12.872;2023-11-19T11:20:22;6.80;99.90
7684;DHT22;3884;48.616;12.872;2023-11-19T11:23:08;7.40;99.90
7684;DHT22;3884;48.616;12.872;2023-11-19T11:25:47;6.90;99.90
7684;DHT22;3884;48.616;12.872;2023-11-19T11:28:26;6.90;99.90
7684;DHT22;3884;48.616;12.872;2023-11-19T11:31:08;6.80;99.90
7684;DHT22;3884;48.616;12.872;2023-11-19T11:33:57;6.90;99.90
7684;DHT22;3884;48.616;12.872;2023-11-19T11:36:31;6.90;99.90
7684;DHT22;3884;48.616;12.872;2023-11-19T11:39:15;7.00;99.90
7684;DHT22;3884;48.616;12.872;2023-11-19T11:41:47;6.80;99.90
7684;DHT22;3884;48.616;12.872;2023-11-19T11:44:59;6.60;99.90
7684;DHT22;3884;48.616;12.872;2023-11-19T11:48:08;6.70;99.90
7684;DHT22;3884;48.616;12.872;2023-11-19T11:50:53;6.90;99.90
7684;DHT22;3884;48.616;12.872;2023-11-19T11:53:24;6.90;99.90
7684;DHT22;3884;48.616;12.872;2023-11-19T11:56:01;6.70;99.90
7684;DHT22;3884;48.616;12.872;2023-11-19T11:58:35;7.10;99.90
7684;DHT22;3884;48.616;12.872;2023-11-19T12:01:05;7.50;99.90
7684;DHT22;3884;48.616;12.872;2023-11-19T12:03:34;6.90;99.90
7684;DHT22;3884;48.616;12.872;2023-11-19T12:06:03;7.00;99.90
7684;DHT22;3884;48.616;12.872;2023-11-19T12:08:34;6.90;99.90
7684;DHT22;3884;48.616;12.872;2023-11-19T12:11:04;7.00;99.90
7684;DHT22;3884;48.616;12.872;2023-11-19T12:13:53;7.20;99.90
7684;DHT22;3884;48.616;12.872;2023-11-19T12:16:24;7.50;99.90
7684;DHT22;3884;48.616;12.872;2023-11-19T12:18:55;8.30;99.90
7684;DHT22;3884;48.616;12.872;2023-11-19T12:21:47;7.50;99.90
7684;DHT22;3884;48.616;12.872;2023-11-19T12:25:00;8.60;99.90
7684;DHT22;3884;48.616;12.872;2023-11-19T12:28:54;8.30;99.90
7684;DHT22;3884;48.616;12.872;2023-11-19T12:31:56;8.10;99.90
7684;DHT22;3884;48.616;12.872;2023-11-19T12:53:53;7.30;99.90
7684;DHT22;3884;48.616;12.872;2023-11-19T13:01:03;7.40;99.90
7684;DHT22;3884;48.616;12.872;2023-11-19T13:04:21;7.60;99.90
7684;DHT22;3884;48.616;12.872;2023-11-19T13:29:25;9.30;99.90
7684;DHT22;3884;48.616;12.872;2023-11-19T13:32:13;9.50;99.90
7684;DHT22;3884;48.616;12.872;2023-11-19T13:38:53;9.10;99.90
7684;DHT22;3884;48.616;12.872;2023-11-19T13:41:25;10.10;99.90
7684;DHT22;3884;48.616;12.872;2023-11-19T13:43:52;9.80;99.90
7684;DHT22;3884;48.616;12.872;2023-11-19T13:46:21;10.20;99.90
7684;DHT22;3884;48.616;12.872;2023-11-19T13:48:48;9.60;99.90
7684;DHT22;3884;48.616;12.872;2023-11-19T13:51:16;9.20;99.90
7684;DHT22;3884;48.616;12.872;2023-11-19T13:53:43;9.20;99.90
7684;DHT22;3884;48.616;12.872;2023-11-19T13:56:11;9.30;99.90
7684;DHT22;3884;48.616;12.872;2023-11-19T13:58:38;9.80;99.90
7684;DHT22;3884;48.616;12.872;2023-11-19T14:01:07;9.40;99.90
7684;DHT22;3884;48.616;12.872;2023-11-19T14:03:40;9.40;99.90
7684;DHT22;3884;48.616;12.872;2023-11-19T14:06:08;9.50;99.90
7684;DHT22;3884;48.616;12.872;2023-11-19T14:08:37;9.50;99.90
7684;DHT22;3884;48.616;12.872;2023-11-19T14:11:05;10.20;99.90
7684;DHT22;3884;48.616;12.872;2023-11-19T14:13:32;9.50;99.90
7684;DHT22;3884;48.616;12.872;2023-11-19T14:16:00;9.40;99.90
7684;DHT22;3884;48.616;12.872;2023-11-19T14:18:27;9.40;99.90
7684;DHT22;3884;48.616;12.872;2023-11-19T14:20:56;9.40;99.90
7684;DHT22;3884;48.616;12.872;2023-11-19T14:23:24;9.50;99.90
7684;DHT22;3884;48.616;12.872;2023-11-19T14:25:53;9.60;99.90
7684;DHT22;3884;48.616;12.872;2023-11-19T14:28:20;9.50;99.90
7684;DHT22;3884;48.616;12.872;2023-11-19T14:30:47;9.50;99.90
7684;DHT22;3884;48.616;12.872;2023-11-19T14:33:19;9.50;99.90
7684;DHT22;3884;48.616;12.872;2023-11-19T14:35:46;9.40;99.90
7684;DHT22;3884;48.616;12.872;2023-11-19T14:38:16;9.50;99.90
7684;DHT22;3884;48.616;12.872;2023-11-19T14:40:45;9.40;99.90
7684;DHT22;3884;48.616;12.872;2023-11-19T14:43:12;10.00;99.90
7684;DHT22;3884;48.616;12.872;2023-11-19T14:45:41;8.60;99.90
7684;DHT22;3884;48.616;12.872;2023-11-19T14:48:11;8.70;99.90
7684;DHT22;3884;48.616;12.872;2023-11-19T14:50:38;8.70;99.90
7684;DHT22;3884;48.616;12.872;2023-11-19T14:53:05;8.80;99.90
7684;DHT22;3884;48.616;12.872;2023-11-19T14:55:35;8.90;99.90
7684;DHT22;3884;48.616;12.872;2023-11-19T14:58:02;9.80;99.90
7684;DHT22;3884;48.616;12.872;2023-11-19T15:00:30;8.70;99.90
7684;DHT22;3884;48.616;12.872;2023-11-19T15:02:59;8.80;99.90
7684;DHT22;3884;48.616;12.872;2023-11-19T15:05:26;8.70;99.90
7684;DHT22;3884;48.616;12.872;2023-11-19T15:07:54;8.70;99.90
7684;DHT22;3884;48.616;12.872;2023-11-19T15:10:21;8.70;99.90
7684;DHT22;3884;48.616;12.872;2023-11-19T15:12:51;8.80;99.90
7684;DHT22;3884;48.616;12.872;2023-11-19T15:15:20;9.30;99.90
7684;DHT22;3884;48.616;12.872;2023-11-19T15:17:47;8.70;99.90
7684;DHT22;3884;48.616;12.872;2023-11-19T15:20:14;8.60;99.90
7684;DHT22;3884;48.616;12.872;2023-11-19T15:22:44;8.60;99.90
7684;DHT22;3884;48.616;12.872;2023-11-19T15:25:10;8.50;99.90
7684;DHT22;3884;48.616;12.872;2023-11-19T15:27:38;8.50;99.90
7684;DHT22;3884;48.616;12.872;2023-11-19T15:30:09;8.50;99.90
7684;DHT22;3884;48.616;12.872;2023-11-19T15:32:36;8.60;99.90
7684;DHT22;3884;48.616;12.872;2023-11-19T15:35:04;8.60;99.90
7684;DHT22;3884;48.616;12.872;2023-11-19T15:37:32;8.50;99.90
7684;DHT22;3884;48.616;12.872;2023-11-19T15:40:00;8.40;99.90
7684;DHT22;3884;48.616;12.872;2023-11-19T15:42:29;8.60;99.90
7684;DHT22;3884;48.616;12.872;2023-11-19T15:44:57;8.30;99.90
7684;DHT22;3884;48.616;12.872;2023-11-19T15:47:26;8.30;99.90
7684;DHT22;3884;48.616;12.872;2023-11-19T15:49:53;8.20;99.90
7684;DHT22;3884;48.616;12.872;2023-11-19T15:52:20;8.20;99.90
7684;DHT22;3884;48.616;12.872;2023-11-19T15:54:47;8.10;99.90
7684;DHT22;3884;48.616;12.872;2023-11-19T15:57:14;8.30;99.90
7684;DHT22;3884;48.616;12.872;2023-11-19T15:59:42;8.20;99.90
7684;DHT22;3884;48.616;12.872;2023-11-19T16:02:09;8.20;99.90
7684;DHT22;3884;48.616;12.872;2023-11-19T16:04:39;8.20;99.90
7684;DHT22;3884;48.616;12.872;2023-11-19T16:07:06;8.30;99.90
7684;DHT22;3884;48.616;12.872;2023-11-19T16:09:32;8.20;99.90
7684;DHT22;3884;48.616;12.872;2023-11-19T16:11:59;8.20;99.90
7684;DHT22;3884;48.616;12.872;2023-11-19T16:14:26;8.00;99.90
7684;DHT22;3884;48.616;12.872;2023-11-19T16:16:53;8.00;99.90
7684;DHT22;3884;48.616;12.872;2023-11-19T16:19:22;8.10;99.90
7684;DHT22;3884;48.616;12.872;2023-11-19T16:21:51;8.10;99.90
7684;DHT22;3884;48.616;12.872;2023-11-19T16:24:18;8.10;99.90
7684;DHT22;3884;48.616;12.872;2023-11-19T16:26:45;8.10;99.90
7684;DHT22;3884;48.616;12.872;2023-11-19T16:29:15;8.00;99.90
7684;DHT22;3884;48.616;12.872;2023-11-19T16:31:42;7.80;99.90
7684;DHT22;3884;48.616;12.872;2023-11-19T16:34:09;7.60;99.90
7684;DHT22;3884;48.616;12.872;2023-11-19T16:36:36;7.60;99.90
7684;DHT22;3884;48.616;12.872;2023-11-19T16:39:04;7.60;99.90
7684;DHT22;3884;48.616;12.872;2023-11-19T16:41:34;7.60;99.90
7684;DHT22;3884;48.616;12.872;2023-11-19T16:44:01;7.70;99.90
7684;DHT22;3884;48.616;12.872;2023-11-19T16:46:30;7.60;99.90
7684;DHT22;3884;48.616;12.872;2023-11-19T16:48:58;7.70;99.90
7684;DHT22;3884;48.616;12.872;2023-11-19T16:51:25;7.90;99.90
7684;DHT22;3884;48.616;12.872;2023-11-19T16:53:52;8.00;99.90
7684;DHT22;3884;48.616;12.872;2023-11-19T16:56:21;8.10;99.90
7684;DHT22;3884;48.616;12.872;2023-11-19T16:58:48;8.10;99.90
7684;DHT22;3884;48.616;12.872;2023-11-19T17:01:15;8.10;99.90
7684;DHT22;3884;48.616;12.872;2023-11-19T17:03:42;8.20;99.90
7684;DHT22;3884;48.616;12.872;2023-11-19T17:06:09;8.20;99.90
7684;DHT22;3884;48.616;12.872;2023-11-19T17:08:36;8.40;99.90
7684;DHT22;3884;48.616;12.872;2023-11-19T17:11:05;8.40;99.90
7684;DHT22;3884;48.616;12.872;2023-11-19T17:13:34;8.40;99.90
7684;DHT22;3884;48.616;12.872;2023-11-19T17:16:01;8.30;99.90
7684;DHT22;3884;48.616;12.872;2023-11-19T17:18:28;8.20;99.90
7684;DHT22;3884;48.616;12.872;2023-11-19T17:20:55;8.10;99.90
7684;DHT22;3884;48.616;12.872;2023-11-19T17:23:23;8.00;99.90
7684;DHT22;3884;48.616;12.872;2023-11-19T17:25:51;7.90;99.90
7684;DHT22;3884;48.616;12.872;2023-11-19T17:28:20;7.90;99.90
7684;DHT22;3884;48.616;12.872;2023-11-19T17:30:50;7.90;99.90
7684;DHT22;3884;48.616;12.872;2023-11-19T17:33:17;8.20;99.90
7684;DHT22;3884;48.616;12.872;2023-11-19T17:35:44;8.10;99.90
7684;DHT22;3884;48.616;12.872;2023-11-19T17:38:11;8.00;99.90
7684;DHT22;3884;48.616;12.872;2023-11-19T17:40:38;8.40;99.90
7684;DHT22;3884;48.616;12.872;2023-11-19T17:43:05;8.30;99.90
7684;DHT22;3884;48.616;12.872;2023-11-19T17:45:32;8.40;99.90
7684;DHT22;3884;48.616;12.872;2023-11-19T17:48:03;8.40;99.90
7684;DHT22;3884;48.616;12.872;2023-11-19T17:50:30;8.70;99.90
7684;DHT22;3884;48.616;12.872;2023-11-19T17:52:57;8.70;99.90
7684;DHT22;3884;48.616;12.872;2023-11-19T17:55:24;8.60;99.90
7684;DHT22;3884;48.616;12.872;2023-11-19T17:57:51;8.80;99.90
7684;DHT22;3884;48.616;12.872;2023-11-19T18:00:18;8.80;99.90
7684;DHT22;3884;48.616;12.872;2023-11-19T18:02:47;8.60;99.90
7684;DHT22;3884;48.616;12.872;2023-11-19T18:05:17;8.60;99.90
7684;DHT22;3884;48.616;12.872;2023-11-19T18:07:46;8.80;99.90
7684;DHT22;3884;48.616;12.872;2023-11-19T18:10:13;9.00;99.90
7684;DHT22;3884;48.616;12.872;2023-11-19T18:12:42;9.00;99.90
7684;DHT22;3884;48.616;12.872;2023-11-19T18:15:09;9.70;99.90
7684;DHT22;3884;48.616;12.872;2023-11-19T18:17:38;10.40;99.90
7684;DHT22;3884;48.616;12.872;2023-11-19T18:20:08;10.90;99.90
7684;DHT22;3884;48.616;12.872;2023-11-19T18:22:38;11.10;99.90
7684;DHT22;3884;48.616;12.872;2023-11-19T18:25:06;11.10;99.90
7684;DHT22;3884;48.616;12.872;2023-11-19T18:27:35;11.00;99.90
7684;DHT22;3884;48.616;12.872;2023-11-19T18:30:05;11.00;99.90
7684;DHT22;3884;48.616;12.872;2023-11-19T18:32:32;11.00;99.90
7684;DHT22;3884;48.616;12.872;2023-11-19T18:35:00;11.00;99.90
7684;DHT22;3884;48.616;12.872;2023-11-19T18:37:27;11.00;99.90
7684;DHT22;3884;48.616;12.872;2023-11-19T18:39:56;11.00;99.90
7684;DHT22;3884;48.616;12.872;2023-11-19T18:42:22;10.90;99.90
7684;DHT22;3884;48.616;12.872;2023-11-19T18:44:49;10.90;99.90
7684;DHT22;3884;48.616;12.872;2023-11-19T18:47:16;10.80;99.90
7684;DHT22;3884;48.616;12.872;2023-11-19T18:49:44;10.90;99.90
7684;DHT22;3884;48.616;12.872;2023-11-19T18:52:11;10.70;99.90
7684;DHT22;3884;48.616;12.872;2023-11-19T18:54:38;10.70;99.90
7684;DHT22;3884;48.616;12.872;2023-11-19T18:57:07;10.70;99.90
7684;DHT22;3884;48.616;12.872;2023-11-19T18:59:33;10.60;99.90
7684;DHT22;3884;48.616;12.872;2023-11-19T19:02:00;10.60;99.90
7684;DHT22;3884;48.616;12.872;2023-11-19T19:04:28;10.50;99.90
7684;DHT22;3884;48.616;12.872;2023-11-19T19:06:55;10.50;99.90
7684;DHT22;3884;48.616;12.872;2023-11-19T19:09:22;10.40;99.90
7684;DHT22;3884;48.616;12.872;2023-11-19T19:11:49;10.40;99.90
7684;DHT22;3884;48.616;12.872;2023-11-19T19:14:19;10.60;99.90
7684;DHT22;3884;48.616;12.872;2023-11-19T19:16:46;10.30;99.90
7684;DHT22;3884;48.616;12.872;2023-11-19T19:19:13;10.20;99.90
7684;DHT22;3884;48.616;12.872;2023-11-19T19:21:40;10.20;99.90
7684;DHT22;3884;48.616;12.872;2023-11-19T19:24:07;10.20;99.90
7684;DHT22;3884;48.616;12.872;2023-11-19T19:26:35;10.30;99.90
7684;DHT22;3884;48.616;12.872;2023-11-19T19:29:02;10.20;99.90
7684;DHT22;3884;48.616;12.872;2023-11-19T19:31:31;10.20;99.90
7684;DHT22;3884;48.616;12.872;2023-11-19T19:33:58;10.20;99.90
7684;DHT22;3884;48.616;12.872;2023-11-19T19:36:26;10.20;99.90
7684;DHT22;3884;48.616;12.872;2023-11-19T19:38:53;10.20;99.90
7684;DHT22;3884;48.616;12.872;2023-11-19T19:41:20;10.20;99.90
7684;DHT22;3884;48.616;12.872;2023-11-19T19:43:49;10.20;99.90
7684;DHT22;3884;48.616;12.872;2023-11-19T19:46:15;10.20;99.90
7684;DHT22;3884;48.616;12.872;2023-11-19T19:48:44;10.10;99.90
7684;DHT22;3884;48.616;12.872;2023-11-19T19:51:11;10.20;99.90
7684;DHT22;3884;48.616;12.872;2023-11-19T19:53:37;10.20;99.90
7684;DHT22;3884;48.616;12.872;2023-11-19T19:56:06;10.30;99.90
7684;DHT22;3884;48.616;12.872;2023-11-19T19:58:34;10.30;99.90
7684;DHT22;3884;48.616;12.872;2023-11-19T20:01:01;10.20;99.90
7684;DHT22;3884;48.616;12.872;2023-11-19T20:03:29;10.30;99.90
7684;DHT22;3884;48.616;12.872;2023-11-19T20:05:59;10.40;99.90
7684;DHT22;3884;48.616;12.872;2023-11-19T20:08:26;10.40;99.90
7684;DHT22;3884;48.616;12.872;2023-11-19T20:10:56;10.40;99.90
7684;DHT22;3884;48.616;12.872;2023-11-19T20:13:23;10.50;99.90
7684;DHT22;3884;48.616;12.872;2023-11-19T20:15:53;10.50;99.90
7684;DHT22;3884;48.616;12.872;2023-11-19T20:18:20;10.50;99.90
7684;DHT22;3884;48.616;12.872;2023-11-19T20:20:48;10.50;99.90
7684;DHT22;3884;48.616;12.872;2023-11-19T20:23:18;10.70;99.90
7684;DHT22;3884;48.616;12.872;2023-11-19T20:25:45;10.50;99.90
7684;DHT22;3884;48.616;12.872;2023-11-19T20:28:14;10.50;99.90
7684;DHT22;3884;48.616;12.872;2023-11-19T20:30:46;10.40;99.90
7684;DHT22;3884;48.616;12.872;2023-11-19T20:33:13;10.50;99.90
7684;DHT22;3884;48.616;12.872;2023-11-19T20:35:41;10.50;99.90
7684;DHT22;3884;48.616;12.872;2023-11-19T20:38:08;10.50;99.90
7684;DHT22;3884;48.616;12.872;2023-11-19T20:40:38;10.50;99.90
7684;DHT22;3884;48.616;12.872;2023-11-19T20:43:05;10.50;99.90
7684;DHT22;3884;48.616;12.872;2023-11-19T20:45:31;10.50;99.90
7684;DHT22;3884;48.616;12.872;2023-11-19T20:47:58;10.50;99.90
7684;DHT22;3884;48.616;12.872;2023-11-19T20:50:25;10.50;99.90
7684;DHT22;3884;48.616;12.872;2023-11-19T20:52:53;10.40;99.90
7684;DHT22;3884;48.616;12.872;2023-11-19T20:55:22;10.40;99.90
7684;DHT22;3884;48.616;12.872;2023-11-19T20:57:51;10.30;99.90
7684;DHT22;3884;48.616;12.872;2023-11-19T21:00:19;10.30;99.90
7684;DHT22;3884;48.616;12.872;2023-11-19T21:02:47;10.30;99.90
7684;DHT22;3884;48.616;12.872;2023-11-19T21:05:14;10.20;99.90
7684;DHT22;3884;48.616;12.872;2023-11-19T21:07:41;10.10;99.90
7684;DHT22;3884;48.616;12.872;2023-11-19T21:10:09;10.10;99.90
7684;DHT22;3884;48.616;12.872;2023-11-19T21:12:38;10.00;99.90
7684;DHT22;3884;48.616;12.872;2023-11-19T21:15:08;9.90;99.90
7684;DHT22;3884;48.616;12.872;2023-11-19T21:17:35;9.80;99.90
7684;DHT22;3884;48.616;12.872;2023-11-19T21:20:04;9.80;99.90
7684;DHT22;3884;48.616;12.872;2023-11-19T21:22:31;9.70;99.90
7684;DHT22;3884;48.616;12.872;2023-11-19T21:24:58;9.70;99.90
7684;DHT22;3884;48.616;12.872;2023-11-19T21:27:25;9.70;99.90
7684;DHT22;3884;48.616;12.872;2023-11-19T21:29:55;9.60;99.90
7684;DHT22;3884;48.616;12.872;2023-11-19T21:32:24;9.50;99.90
7684;DHT22;3884;48.616;12.872;2023-11-19T21:34:51;9.40;99.90
7684;DHT22;3884;48.616;12.872;2023-11-19T21:37:18;9.30;99.90
7684;DHT22;3884;48.616;12.872;2023-11-19T21:39:45;9.30;99.90
7684;DHT22;3884;48.616;12.872;2023-11-19T21:42:12;9.30;99.90
7684;DHT22;3884;48.616;12.872;2023-11-19T21:44:39;9.20;99.90
7684;DHT22;3884;48.616;12.872;2023-11-19T21:47:06;9.20;99.90
7684;DHT22;3884;48.616;12.872;2023-11-19T21:49:36;9.20;99.90
7684;DHT22;3884;48.616;12.872;2023-11-19T21:52:03;9.20;99.90
7684;DHT22;3884;48.616;12.872;2023-11-19T21:54:31;9.20;99.90
7684;DHT22;3884;48.616;12.872;2023-11-19T21:56:59;9.20;99.90
7684;DHT22;3884;48.616;12.872;2023-11-19T21:59:27;9.20;99.90
7684;DHT22;3884;48.616;12.872;2023-11-19T22:01:55;9.30;99.90
7684;DHT22;3884;48.616;12.872;2023-11-19T22:04:22;9.30;99.90
7684;DHT22;3884;48.616;12.872;2023-11-19T22:06:53;9.40;99.90
7684;DHT22;3884;48.616;12.872;2023-11-19T22:09:20;9.40;99.90
7684;DHT22;3884;48.616;12.872;2023-11-19T22:11:47;9.40;99.90
7684;DHT22;3884;48.616;12.872;2023-11-19T22:14:14;9.50;99.90
7684;DHT22;3884;48.616;12.872;2023-11-19T22:16:41;9.60;99.90
7684;DHT22;3884;48.616;12.872;2023-11-19T22:19:08;9.60;99.90
7684;DHT22;3884;48.616;12.872;2023-11-19T22:21:35;9.60;99.90
7684;DHT22;3884;48.616;12.872;2023-11-19T22:24:05;9.60;99.90
7684;DHT22;3884;48.616;12.872;2023-11-19T22:26:34;9.50;99.90
7684;DHT22;3884;48.616;12.872;2023-11-19T22:29:03;9.50;99.90
7684;DHT22;3884;48.616;12.872;2023-11-19T22:31:31;9.50;99.90
7684;DHT22;3884;48.616;12.872;2023-11-19T22:33:59;9.50;99.90
7684;DHT22;3884;48.616;12.872;2023-11-19T22:36:28;9.50;99.90
7684;DHT22;3884;48.616;12.872;2023-11-19T22:38:54;9.50;99.90
7684;DHT22;3884;48.616;12.872;2023-11-19T22:41:23;9.50;99.90
7684;DHT22;3884;48.616;12.872;2023-11-19T22:43:50;9.50;99.90
7684;DHT22;3884;48.616;12.872;2023-11-19T22:46:17;9.50;99.90
7684;DHT22;3884;48.616;12.872;2023-11-19T22:48:46;9.50;99.90
7684;DHT22;3884;48.616;12.872;2023-11-19T22:51:13;9.50;99.90
7684;DHT22;3884;48.616;12.872;2023-11-19T22:53:41;9.50;99.90
7684;DHT22;3884;48.616;12.872;2023-11-19T22:56:08;9.50;99.90
7684;DHT22;3884;48.616;12.872;2023-11-19T22:58:38;9.50;99.90
7684;DHT22;3884;48.616;12.872;2023-11-19T23:01:08;9.50;99.90
7684;DHT22;3884;48.616;12.872;2023-11-19T23:03:35;9.50;99.90